sensor_id;sensor_type;location;lat;lon;timestamp;pressure;altitude;pressure_sealevel;temperature;humidity
61900;BME280;47853;55.890;37.664;2023-08-08T00:00:31;98613.00;;;25.71;100.00
61900;BME280;47853;55.890;37.664;2023-08-08T00:02:56;98611.63;;;25.98;99.45
61900;BME280;47853;55.890;37.664;2023-08-08T00:05:24;98598.88;;;25.34;100.00
61900;BME280;47853;55.890;37.664;2023-08-08T00:07:50;98612.38;;;25.50;100.00
61900;BME280;47853;55.890;37.664;2023-08-08T00:10:15;98594.25;;;25.69;100.00
61900;BME280;47853;55.890;37.664;2023-08-08T00:12:40;98594.03;;;25.66;100.00
61900;BME280;47853;55.890;37.664;2023-08-08T00:15:06;98585.25;;;25.74;100.00
61900;BME280;47853;55.890;37.664;2023-08-08T00:17:32;98595.22;;;24.74;100.00
61900;BME280;47853;55.890;37.664;2023-08-08T00:19:57;98598.56;;;24.56;100.00
61900;BME280;47853;55.890;37.664;2023-08-08T00:22:22;98593.44;;;24.54;100.00
61900;BME280;47853;55.890;37.664;2023-08-08T00:24:48;98591.50;;;24.60;100.00
61900;BME280;47853;55.890;37.664;2023-08-08T00:27:13;98587.03;;;24.29;100.00
61900;BME280;47853;55.890;37.664;2023-08-08T00:29:44;98587.28;;;24.38;100.00
61900;BME280;47853;55.890;37.664;2023-08-08T00:32:10;98571.78;;;24.39;100.00
61900;BME280;47853;55.890;37.664;2023-08-08T00:34:35;98582.78;;;24.13;100.00
61900;BME280;47853;55.890;37.664;2023-08-08T00:37:00;98577.16;;;24.49;100.00
61900;BME280;47853;55.890;37.664;2023-08-08T00:39:26;98563.31;;;24.51;100.00
61900;BME280;47853;55.890;37.664;2023-08-08T00:41:51;98560.38;;;24.42;100.00
61900;BME280;47853;55.890;37.664;2023-08-08T00:44:16;98566.91;;;24.41;100.00
61900;BME280;47853;55.890;37.664;2023-08-08T00:46:42;98568.34;;;24.73;100.00
61900;BME280;47853;55.890;37.664;2023-08-08T00:49:07;98565.31;;;24.35;100.00
61900;BME280;47853;55.890;37.664;2023-08-08T00:51:32;98562.59;;;24.35;100.00
61900;BME280;47853;55.890;37.664;2023-08-08T00:53:58;98565.63;;;24.23;100.00
61900;BME280;47853;55.890;37.664;2023-08-08T00:56:24;98553.13;;;24.27;100.00
61900;BME280;47853;55.890;37.664;2023-08-08T00:58:50;98553.31;;;24.46;100.00
61900;BME280;47853;55.890;37.664;2023-08-08T01:01:15;98554.75;;;24.28;100.00
61900;BME280;47853;55.890;37.664;2023-08-08T01:03:40;98554.63;;;24.99;100.00
61900;BME280;47853;55.890;37.664;2023-08-08T01:06:13;98558.34;;;24.08;100.00
61900;BME280;47853;55.890;37.664;2023-08-08T01:08:51;98551.66;;;23.79;100.00
61900;BME280;47853;55.890;37.664;2023-08-08T01:11:20;98544.06;;;23.81;100.00
61900;BME280;47853;55.890;37.664;2023-08-08T01:13:46;98554.63;;;23.88;100.00
61900;BME280;47853;55.890;37.664;2023-08-08T01:16:12;98553.56;;;23.79;100.00
61900;BME280;47853;55.890;37.664;2023-08-08T01:18:38;98552.16;;;23.97;100.00
61900;BME280;47853;55.890;37.664;2023-08-08T01:21:06;98544.28;;;24.11;100.00
61900;BME280;47853;55.890;37.664;2023-08-08T01:23:43;98537.88;;;24.86;100.00
61900;BME280;47853;55.890;37.664;2023-08-08T01:26:10;98535.53;;;24.24;100.00
61900;BME280;47853;55.890;37.664;2023-08-08T01:28:36;98525.13;;;23.71;100.00
61900;BME280;47853;55.890;37.664;2023-08-08T01:31:01;98509.72;;;24.32;100.00
61900;BME280;47853;55.890;37.664;2023-08-08T01:33:26;98497.44;;;24.40;100.00
61900;BME280;47853;55.890;37.664;2023-08-08T01:35:59;98499.56;;;23.93;100.00
61900;BME280;47853;55.890;37.664;2023-08-08T01:38:35;98518.91;;;23.60;100.00
61900;BME280;47853;55.890;37.664;2023-08-08T01:41:05;98532.53;;;24.21;100.00
61900;BME280;47853;55.890;37.664;2023-08-08T01:43:32;98537.50;;;23.98;100.00
61900;BME280;47853;55.890;37.664;2023-08-08T01:45:59;98528.78;;;24.16;100.00
61900;BME280;47853;55.890;37.664;2023-08-08T01:48:25;98545.38;;;24.10;100.00
61900;BME280;47853;55.890;37.664;2023-08-08T01:50:50;98540.03;;;24.44;100.00
61900;BME280;47853;55.890;37.664;2023-08-08T01:53:15;98521.66;;;24.26;100.00
61900;BME280;47853;55.890;37.664;2023-08-08T01:55:41;98520.38;;;24.18;100.00
61900;BME280;47853;55.890;37.664;2023-08-08T01:58:07;98519.44;;;23.72;100.00
61900;BME280;47853;55.890;37.664;2023-08-08T02:00:32;98517.19;;;23.90;100.00
61900;BME280;47853;55.890;37.664;2023-08-08T02:02:57;98515.66;;;23.68;100.00
61900;BME280;47853;55.890;37.664;2023-08-08T02:05:23;98520.78;;;23.75;100.00
61900;BME280;47853;55.890;37.664;2023-08-08T02:07:48;98519.22;;;24.29;100.00
61900;BME280;47853;55.890;37.664;2023-08-08T02:10:13;98516.09;;;24.01;100.00
61900;BME280;47853;55.890;37.664;2023-08-08T02:12:39;98515.69;;;23.53;100.00
61900;BME280;47853;55.890;37.664;2023-08-08T02:15:05;98534.41;;;24.30;100.00
61900;BME280;47853;55.890;37.664;2023-08-08T02:17:30;98527.16;;;24.15;100.00
61900;BME280;47853;55.890;37.664;2023-08-08T02:19:55;98523.31;;;24.22;100.00
61900;BME280;47853;55.890;37.664;2023-08-08T02:22:22;98521.72;;;24.15;100.00
61900;BME280;47853;55.890;37.664;2023-08-08T02:24:47;98517.31;;;24.35;100.00
61900;BME280;47853;55.890;37.664;2023-08-08T02:27:15;98520.59;;;24.22;100.00
61900;BME280;47853;55.890;37.664;2023-08-08T02:29:40;98516.94;;;23.81;100.00
61900;BME280;47853;55.890;37.664;2023-08-08T02:32:06;98523.47;;;23.75;100.00
61900;BME280;47853;55.890;37.664;2023-08-08T02:34:31;98517.88;;;24.32;100.00
61900;BME280;47853;55.890;37.664;2023-08-08T02:36:57;98520.03;;;24.25;100.00
61900;BME280;47853;55.890;37.664;2023-08-08T02:39:22;98524.91;;;24.73;100.00
61900;BME280;47853;55.890;37.664;2023-08-08T02:41:47;98525.22;;;24.76;100.00
61900;BME280;47853;55.890;37.664;2023-08-08T02:44:13;98534.81;;;24.58;100.00
61900;BME280;47853;55.890;37.664;2023-08-08T02:46:38;98532.72;;;24.40;100.00
61900;BME280;47853;55.890;37.664;2023-08-08T02:49:04;98526.06;;;24.67;100.00
61900;BME280;47853;55.890;37.664;2023-08-08T02:51:29;98533.09;;;24.68;100.00
61900;BME280;47853;55.890;37.664;2023-08-08T02:53:55;98528.41;;;24.33;100.00
61900;BME280;47853;55.890;37.664;2023-08-08T02:56:20;98529.81;;;24.71;99.01
61900;BME280;47853;55.890;37.664;2023-08-08T02:58:45;98517.41;;;24.14;100.00
61900;BME280;47853;55.890;37.664;2023-08-08T03:01:11;98515.44;;;24.25;100.00
61900;BME280;47853;55.890;37.664;2023-08-08T03:03:36;98523.59;;;24.25;100.00
61900;BME280;47853;55.890;37.664;2023-08-08T03:06:01;98524.91;;;24.33;100.00
61900;BME280;47853;55.890;37.664;2023-08-08T03:08:27;98515.66;;;23.63;100.00
61900;BME280;47853;55.890;37.664;2023-08-08T03:10:52;98521.09;;;23.68;100.00
61900;BME280;47853;55.890;37.664;2023-08-08T03:13:17;98541.59;;;24.00;100.00
61900;BME280;47853;55.890;37.664;2023-08-08T03:15:43;98532.50;;;24.36;100.00
61900;BME280;47853;55.890;37.664;2023-08-08T03:18:08;98533.16;;;24.62;100.00
61900;BME280;47853;55.890;37.664;2023-08-08T03:20:33;98535.13;;;24.91;99.70
61900;BME280;47853;55.890;37.664;2023-08-08T03:22:59;98531.06;;;24.44;100.00
61900;BME280;47853;55.890;37.664;2023-08-08T03:25:24;98534.44;;;24.75;100.00
61900;BME280;47853;55.890;37.664;2023-08-08T03:27:49;98530.16;;;24.59;100.00
61900;BME280;47853;55.890;37.664;2023-08-08T03:30:15;98539.84;;;24.30;100.00
61900;BME280;47853;55.890;37.664;2023-08-08T03:32:40;98530.03;;;24.35;100.00
61900;BME280;47853;55.890;37.664;2023-08-08T03:35:06;98533.75;;;24.54;100.00
61900;BME280;47853;55.890;37.664;2023-08-08T03:37:31;98538.47;;;24.28;100.00
61900;BME280;47853;55.890;37.664;2023-08-08T03:39:57;98540.47;;;24.62;100.00
61900;BME280;47853;55.890;37.664;2023-08-08T03:42:22;98535.78;;;24.73;100.00
61900;BME280;47853;55.890;37.664;2023-08-08T03:44:48;98535.81;;;25.08;97.61
61900;BME280;47853;55.890;37.664;2023-08-08T03:47:13;98536.47;;;24.54;100.00
61900;BME280;47853;55.890;37.664;2023-08-08T03:49:38;98538.31;;;25.33;97.77
61900;BME280;47853;55.890;37.664;2023-08-08T03:52:04;98540.94;;;24.80;100.00
61900;BME280;47853;55.890;37.664;2023-08-08T03:54:30;98547.28;;;23.94;100.00
61900;BME280;47853;55.890;37.664;2023-08-08T03:57:04;98548.63;;;23.96;100.00
61900;BME280;47853;55.890;37.664;2023-08-08T03:59:30;98547.31;;;24.54;100.00
61900;BME280;47853;55.890;37.664;2023-08-08T04:01:55;98547.41;;;24.84;100.00
61900;BME280;47853;55.890;37.664;2023-08-08T04:04:20;98544.59;;;24.54;100.00
61900;BME280;47853;55.890;37.664;2023-08-08T04:06:46;98538.47;;;25.13;99.54
61900;BME280;47853;55.890;37.664;2023-08-08T04:09:11;98546.66;;;25.08;98.59
61900;BME280;47853;55.890;37.664;2023-08-08T04:11:36;98556.88;;;24.86;99.66
61900;BME280;47853;55.890;37.664;2023-08-08T04:14:02;98551.34;;;25.02;97.75
61900;BME280;47853;55.890;37.664;2023-08-08T04:16:28;98546.34;;;25.14;96.76
61900;BME280;47853;55.890;37.664;2023-08-08T04:18:53;98554.72;;;25.18;97.17
61900;BME280;47853;55.890;37.664;2023-08-08T04:21:19;98552.59;;;25.50;95.91
61900;BME280;47853;55.890;37.664;2023-08-08T04:23:44;98554.00;;;24.67;100.00
61900;BME280;47853;55.890;37.664;2023-08-08T04:26:09;98546.00;;;24.46;100.00
61900;BME280;47853;55.890;37.664;2023-08-08T04:28:35;98555.38;;;24.65;100.00
61900;BME280;47853;55.890;37.664;2023-08-08T04:31:00;98553.78;;;24.58;100.00
61900;BME280;47853;55.890;37.664;2023-08-08T04:33:25;98549.72;;;25.01;98.95
61900;BME280;47853;55.890;37.664;2023-08-08T04:35:51;98562.59;;;25.19;99.71
61900;BME280;47853;55.890;37.664;2023-08-08T04:38:16;98543.44;;;24.66;100.00
61900;BME280;47853;55.890;37.664;2023-08-08T04:40:41;98546.41;;;25.09;100.00
61900;BME280;47853;55.890;37.664;2023-08-08T04:43:07;98560.56;;;25.06;100.00
61900;BME280;47853;55.890;37.664;2023-08-08T04:45:32;98554.25;;;25.11;100.00
61900;BME280;47853;55.890;37.664;2023-08-08T04:47:57;98556.38;;;25.19;100.00
61900;BME280;47853;55.890;37.664;2023-08-08T04:50:23;98560.69;;;24.85;100.00
61900;BME280;47853;55.890;37.664;2023-08-08T04:52:48;98568.47;;;24.97;100.00
61900;BME280;47853;55.890;37.664;2023-08-08T04:55:14;98564.31;;;25.10;100.00
61900;BME280;47853;55.890;37.664;2023-08-08T04:57:39;98560.88;;;25.63;100.00
61900;BME280;47853;55.890;37.664;2023-08-08T05:00:05;98552.38;;;24.66;100.00
61900;BME280;47853;55.890;37.664;2023-08-08T05:02:31;98566.38;;;24.89;100.00
61900;BME280;47853;55.890;37.664;2023-08-08T05:04:56;98556.44;;;25.38;100.00
61900;BME280;47853;55.890;37.664;2023-08-08T05:07:21;98557.94;;;24.90;100.00
61900;BME280;47853;55.890;37.664;2023-08-08T05:09:47;98561.06;;;25.08;100.00
61900;BME280;47853;55.890;37.664;2023-08-08T05:12:12;98563.81;;;25.91;100.00
61900;BME280;47853;55.890;37.664;2023-08-08T05:14:37;98565.50;;;24.94;100.00
61900;BME280;47853;55.890;37.664;2023-08-08T05:17:03;98564.31;;;25.10;100.00
61900;BME280;47853;55.890;37.664;2023-08-08T05:19:28;98568.59;;;24.82;100.00
61900;BME280;47853;55.890;37.664;2023-08-08T05:21:53;98576.84;;;25.06;100.00
61900;BME280;47853;55.890;37.664;2023-08-08T05:24:19;98586.16;;;25.29;100.00
61900;BME280;47853;55.890;37.664;2023-08-08T05:26:44;98587.72;;;24.56;100.00
61900;BME280;47853;55.890;37.664;2023-08-08T05:29:09;98576.38;;;24.99;100.00
61900;BME280;47853;55.890;37.664;2023-08-08T05:31:35;98567.06;;;24.60;100.00
61900;BME280;47853;55.890;37.664;2023-08-08T05:34:00;98576.75;;;24.71;100.00
61900;BME280;47853;55.890;37.664;2023-08-08T05:36:25;98570.06;;;25.03;100.00
61900;BME280;47853;55.890;37.664;2023-08-08T05:38:51;98566.94;;;25.20;100.00
61900;BME280;47853;55.890;37.664;2023-08-08T05:41:16;98561.22;;;24.87;100.00
61900;BME280;47853;55.890;37.664;2023-08-08T05:43:41;98567.59;;;25.07;100.00
61900;BME280;47853;55.890;37.664;2023-08-08T05:46:07;98567.72;;;25.26;100.00
61900;BME280;47853;55.890;37.664;2023-08-08T05:48:32;98568.66;;;25.41;100.00
61900;BME280;47853;55.890;37.664;2023-08-08T05:50:57;98562.47;;;26.18;100.00
61900;BME280;47853;55.890;37.664;2023-08-08T05:53:23;98561.91;;;26.60;97.41
61900;BME280;47853;55.890;37.664;2023-08-08T05:55:48;98563.50;;;26.23;99.38
61900;BME280;47853;55.890;37.664;2023-08-08T05:58:13;98567.66;;;25.90;100.00
61900;BME280;47853;55.890;37.664;2023-08-08T06:00:42;98565.78;;;26.73;97.44
61900;BME280;47853;55.890;37.664;2023-08-08T06:03:10;98556.63;;;27.21;90.94
61900;BME280;47853;55.890;37.664;2023-08-08T06:05:36;98560.56;;;26.76;93.84
61900;BME280;47853;55.890;37.664;2023-08-08T06:08:01;98563.91;;;25.27;100.00
61900;BME280;47853;55.890;37.664;2023-08-08T06:10:26;98566.66;;;25.57;100.00
61900;BME280;47853;55.890;37.664;2023-08-08T06:12:52;98566.94;;;25.80;100.00
61900;BME280;47853;55.890;37.664;2023-08-08T06:15:17;98563.03;;;26.15;96.22
61900;BME280;47853;55.890;37.664;2023-08-08T06:17:42;98578.66;;;26.29;98.22
61900;BME280;47853;55.890;37.664;2023-08-08T06:20:08;98569.88;;;25.59;100.00
61900;BME280;47853;55.890;37.664;2023-08-08T06:22:33;98559.25;;;26.74;93.01
61900;BME280;47853;55.890;37.664;2023-08-08T06:24:58;98575.88;;;26.72;93.95
61900;BME280;47853;55.890;37.664;2023-08-08T06:27:24;98581.47;;;26.62;97.27
61900;BME280;47853;55.890;37.664;2023-08-08T06:29:49;98567.53;;;26.25;100.00
61900;BME280;47853;55.890;37.664;2023-08-08T06:32:14;98559.56;;;25.85;100.00
61900;BME280;47853;55.890;37.664;2023-08-08T06:34:40;98582.94;;;26.54;99.93
61900;BME280;47853;55.890;37.664;2023-08-08T06:37:05;98576.63;;;26.59;100.00
61900;BME280;47853;55.890;37.664;2023-08-08T06:39:31;98575.50;;;26.41;100.00
61900;BME280;47853;55.890;37.664;2023-08-08T06:41:56;98576.50;;;26.01;100.00
61900;BME280;47853;55.890;37.664;2023-08-08T06:44:21;98582.66;;;26.75;94.50
61900;BME280;47853;55.890;37.664;2023-08-08T06:46:47;98578.16;;;27.23;93.70
61900;BME280;47853;55.890;37.664;2023-08-08T06:49:12;98579.91;;;27.13;90.53
61900;BME280;47853;55.890;37.664;2023-08-08T06:51:37;98582.13;;;26.34;100.00
61900;BME280;47853;55.890;37.664;2023-08-08T06:54:03;98588.81;;;25.94;100.00
61900;BME280;47853;55.890;37.664;2023-08-08T06:56:29;98579.09;;;25.63;100.00
61900;BME280;47853;55.890;37.664;2023-08-08T06:58:54;98575.22;;;26.61;99.45
61900;BME280;47853;55.890;37.664;2023-08-08T07:01:19;98579.28;;;26.64;98.20
61900;BME280;47853;55.890;37.664;2023-08-08T07:03:45;98588.56;;;27.01;92.54
61900;BME280;47853;55.890;37.664;2023-08-08T07:06:10;98576.50;;;26.88;96.19
61900;BME280;47853;55.890;37.664;2023-08-08T07:08:36;98584.25;;;27.14;94.58
61900;BME280;47853;55.890;37.664;2023-08-08T07:11:01;98581.91;;;26.69;95.67
61900;BME280;47853;55.890;37.664;2023-08-08T07:13:26;98595.56;;;26.88;97.75
61900;BME280;47853;55.890;37.664;2023-08-08T07:15:52;98598.72;;;26.96;92.62
61900;BME280;47853;55.890;37.664;2023-08-08T07:18:17;98598.03;;;27.04;91.41
61900;BME280;47853;55.890;37.664;2023-08-08T07:20:42;98606.81;;;26.14;100.00
61900;BME280;47853;55.890;37.664;2023-08-08T07:23:08;98607.44;;;26.73;100.00
61900;BME280;47853;55.890;37.664;2023-08-08T07:25:34;98597.84;;;27.33;88.61
61900;BME280;47853;55.890;37.664;2023-08-08T07:27:59;98602.03;;;26.92;94.65
61900;BME280;47853;55.890;37.664;2023-08-08T07:30:24;98596.19;;;27.52;87.59
61900;BME280;47853;55.890;37.664;2023-08-08T07:32:50;98606.19;;;27.23;91.36
61900;BME280;47853;55.890;37.664;2023-08-08T07:35:16;98608.59;;;28.05;86.31
61900;BME280;47853;55.890;37.664;2023-08-08T07:37:41;98607.38;;;27.97;85.69
61900;BME280;47853;55.890;37.664;2023-08-08T07:40:14;98601.50;;;27.76;86.34
61900;BME280;47853;55.890;37.664;2023-08-08T07:42:39;98609.19;;;26.45;95.85
61900;BME280;47853;55.890;37.664;2023-08-08T07:45:05;98608.19;;;26.16;100.00
61900;BME280;47853;55.890;37.664;2023-08-08T07:47:31;98613.03;;;24.96;100.00
61900;BME280;47853;55.890;37.664;2023-08-08T07:49:56;98609.38;;;26.29;100.00
61900;BME280;47853;55.890;37.664;2023-08-08T07:52:21;98613.03;;;26.44;100.00
61900;BME280;47853;55.890;37.664;2023-08-08T07:54:47;98607.66;;;25.85;100.00
61900;BME280;47853;55.890;37.664;2023-08-08T07:57:12;98602.81;;;26.06;100.00
61900;BME280;47853;55.890;37.664;2023-08-08T07:59:38;98602.00;;;26.54;99.96
61900;BME280;47853;55.890;37.664;2023-08-08T08:02:03;98610.84;;;26.65;96.76
61900;BME280;47853;55.890;37.664;2023-08-08T08:04:28;98618.19;;;26.64;100.00
61900;BME280;47853;55.890;37.664;2023-08-08T08:06:54;98621.56;;;25.83;100.00
61900;BME280;47853;55.890;37.664;2023-08-08T08:09:19;98622.84;;;25.27;100.00
61900;BME280;47853;55.890;37.664;2023-08-08T08:11:45;98626.94;;;24.84;100.00
61900;BME280;47853;55.890;37.664;2023-08-08T08:14:10;98621.22;;;25.26;100.00
61900;BME280;47853;55.890;37.664;2023-08-08T08:16:35;98625.81;;;25.30;100.00
61900;BME280;47853;55.890;37.664;2023-08-08T08:19:01;98612.84;;;25.57;100.00
61900;BME280;47853;55.890;37.664;2023-08-08T08:21:26;98610.25;;;26.25;100.00
61900;BME280;47853;55.890;37.664;2023-08-08T08:23:52;98618.78;;;26.61;100.00
61900;BME280;47853;55.890;37.664;2023-08-08T08:26:17;98625.94;;;26.33;100.00
61900;BME280;47853;55.890;37.664;2023-08-08T08:28:42;98625.34;;;26.79;100.00
61900;BME280;47853;55.890;37.664;2023-08-08T08:31:08;98614.66;;;26.20;100.00
61900;BME280;47853;55.890;37.664;2023-08-08T08:33:33;98625.22;;;25.98;100.00
61900;BME280;47853;55.890;37.664;2023-08-08T08:35:58;98630.09;;;26.69;100.00
61900;BME280;47853;55.890;37.664;2023-08-08T08:38:24;98636.03;;;26.76;100.00
61900;BME280;47853;55.890;37.664;2023-08-08T08:40:50;98635.63;;;26.63;100.00
61900;BME280;47853;55.890;37.664;2023-08-08T08:43:17;98642.63;;;25.97;100.00
61900;BME280;47853;55.890;37.664;2023-08-08T08:45:43;98640.88;;;27.17;100.00
61900;BME280;47853;55.890;37.664;2023-08-08T08:48:13;98642.88;;;26.00;100.00
61900;BME280;47853;55.890;37.664;2023-08-08T08:50:41;98634.28;;;26.85;100.00
61900;BME280;47853;55.890;37.664;2023-08-08T08:53:07;98641.63;;;27.04;100.00
61900;BME280;47853;55.890;37.664;2023-08-08T08:55:32;98633.44;;;27.75;99.38
61900;BME280;47853;55.890;37.664;2023-08-08T08:57:58;98635.31;;;28.22;96.08
61900;BME280;47853;55.890;37.664;2023-08-08T09:00:24;98643.25;;;27.90;100.00
61900;BME280;47853;55.890;37.664;2023-08-08T09:02:49;98646.84;;;28.19;94.26
61900;BME280;47853;55.890;37.664;2023-08-08T09:05:16;98635.91;;;28.33;90.04
61900;BME280;47853;55.890;37.664;2023-08-08T09:07:43;98641.59;;;29.70;82.89
61900;BME280;47853;55.890;37.664;2023-08-08T09:10:09;98623.06;;;31.62;67.38
61900;BME280;47853;55.890;37.664;2023-08-08T09:12:34;98627.31;;;28.12;94.93
61900;BME280;47853;55.890;37.664;2023-08-08T09:15:01;98629.22;;;28.39;90.95
61900;BME280;47853;55.890;37.664;2023-08-08T09:17:27;98637.25;;;27.41;99.02
61900;BME280;47853;55.890;37.664;2023-08-08T09:19:54;98645.44;;;27.74;95.62
61900;BME280;47853;55.890;37.664;2023-08-08T09:22:19;98646.13;;;28.41;90.14
61900;BME280;47853;55.890;37.664;2023-08-08T09:24:45;98651.13;;;28.76;87.37
61900;BME280;47853;55.890;37.664;2023-08-08T09:27:10;98652.97;;;28.80;87.47
61900;BME280;47853;55.890;37.664;2023-08-08T09:29:36;98652.47;;;28.64;87.19
61900;BME280;47853;55.890;37.664;2023-08-08T09:32:05;98656.44;;;28.30;90.51
61900;BME280;47853;55.890;37.664;2023-08-08T09:34:31;98660.41;;;29.03;83.69
61900;BME280;47853;55.890;37.664;2023-08-08T09:36:57;98651.34;;;28.79;84.70
61900;BME280;47853;55.890;37.664;2023-08-08T09:39:22;98655.97;;;28.93;86.39
61900;BME280;47853;55.890;37.664;2023-08-08T09:41:50;98665.38;;;29.69;78.28
61900;BME280;47853;55.890;37.664;2023-08-08T09:44:15;98660.94;;;30.54;72.29
61900;BME280;47853;55.890;37.664;2023-08-08T09:46:41;98666.63;;;29.17;81.75
61900;BME280;47853;55.890;37.664;2023-08-08T09:49:06;98666.28;;;28.96;82.97
61900;BME280;47853;55.890;37.664;2023-08-08T09:51:33;98660.31;;;28.94;84.09
61900;BME280;47853;55.890;37.664;2023-08-08T09:53:59;98662.00;;;27.64;92.60
61900;BME280;47853;55.890;37.664;2023-08-08T09:56:25;98662.78;;;28.68;83.63
61900;BME280;47853;55.890;37.664;2023-08-08T09:58:51;98659.56;;;29.62;76.41
61900;BME280;47853;55.890;37.664;2023-08-08T10:01:19;98659.94;;;29.46;78.46
61900;BME280;47853;55.890;37.664;2023-08-08T10:03:45;98658.88;;;29.56;74.89
61900;BME280;47853;55.890;37.664;2023-08-08T10:06:11;98667.94;;;30.29;72.71
61900;BME280;47853;55.890;37.664;2023-08-08T10:08:36;98656.03;;;30.91;69.64
61900;BME280;47853;55.890;37.664;2023-08-08T10:11:02;98657.91;;;29.84;74.34
61900;BME280;47853;55.890;37.664;2023-08-08T10:13:30;98665.53;;;29.04;76.16
61900;BME280;47853;55.890;37.664;2023-08-08T10:15:56;98660.56;;;28.42;81.65
61900;BME280;47853;55.890;37.664;2023-08-08T10:18:22;98665.09;;;29.48;77.77
61900;BME280;47853;55.890;37.664;2023-08-08T10:20:49;98665.09;;;29.48;77.61
61900;BME280;47853;55.890;37.664;2023-08-08T10:23:16;98660.72;;;29.24;79.33
61900;BME280;47853;55.890;37.664;2023-08-08T10:25:45;98661.44;;;29.16;81.53
61900;BME280;47853;55.890;37.664;2023-08-08T10:28:14;98664.91;;;27.68;90.78
61900;BME280;47853;55.890;37.664;2023-08-08T10:31:15;98669.72;;;29.93;77.18
61900;BME280;47853;55.890;37.664;2023-08-08T10:33:42;98667.47;;;29.04;82.92
61900;BME280;47853;55.890;37.664;2023-08-08T10:36:08;98673.56;;;29.23;82.34
61900;BME280;47853;55.890;37.664;2023-08-08T10:39:01;98668.63;;;30.43;73.75
61900;BME280;47853;55.890;37.664;2023-08-08T10:41:26;98673.25;;;30.25;73.19
61900;BME280;47853;55.890;37.664;2023-08-08T10:43:57;98672.50;;;30.42;73.13
61900;BME280;47853;55.890;37.664;2023-08-08T10:46:31;98672.81;;;30.00;73.39
61900;BME280;47853;55.890;37.664;2023-08-08T10:48:58;98673.94;;;30.39;70.06
61900;BME280;47853;55.890;37.664;2023-08-08T10:51:38;98686.19;;;30.02;72.45
61900;BME280;47853;55.890;37.664;2023-08-08T10:54:24;98680.38;;;31.02;66.98
61900;BME280;47853;55.890;37.664;2023-08-08T10:56:54;98690.78;;;29.92;73.74
61900;BME280;47853;55.890;37.664;2023-08-08T10:59:35;98685.44;;;29.87;75.53
61900;BME280;47853;55.890;37.664;2023-08-08T11:02:01;98681.59;;;30.60;69.77
61900;BME280;47853;55.890;37.664;2023-08-08T11:04:27;98688.44;;;29.31;78.75
61900;BME280;47853;55.890;37.664;2023-08-08T11:06:53;98694.47;;;29.05;78.96
61900;BME280;47853;55.890;37.664;2023-08-08T11:09:19;98704.34;;;29.29;79.28
61900;BME280;47853;55.890;37.664;2023-08-08T11:11:45;98697.31;;;29.14;82.15
61900;BME280;47853;55.890;37.664;2023-08-08T11:14:15;98705.50;;;29.37;78.43
61900;BME280;47853;55.890;37.664;2023-08-08T11:16:42;98700.78;;;30.69;72.02
61900;BME280;47853;55.890;37.664;2023-08-08T11:19:09;98696.66;;;29.54;81.91
61900;BME280;47853;55.890;37.664;2023-08-08T11:21:39;98692.38;;;30.16;74.83
61900;BME280;47853;55.890;37.664;2023-08-08T11:24:05;98686.47;;;30.72;71.39
61900;BME280;47853;55.890;37.664;2023-08-08T11:26:31;98681.97;;;31.64;65.76
61900;BME280;47853;55.890;37.664;2023-08-08T11:28:58;98686.00;;;31.14;66.83
61900;BME280;47853;55.890;37.664;2023-08-08T11:31:24;98701.69;;;29.84;73.32
61900;BME280;47853;55.890;37.664;2023-08-08T11:33:49;98698.91;;;29.52;76.87
61900;BME280;47853;55.890;37.664;2023-08-08T11:36:15;98698.31;;;30.09;74.29
61900;BME280;47853;55.890;37.664;2023-08-08T11:38:41;98700.47;;;28.93;83.39
61900;BME280;47853;55.890;37.664;2023-08-08T11:41:07;98705.88;;;29.21;82.05
61900;BME280;47853;55.890;37.664;2023-08-08T11:43:33;98704.50;;;29.33;82.38
61900;BME280;47853;55.890;37.664;2023-08-08T11:46:02;98705.66;;;28.81;85.80
61900;BME280;47853;55.890;37.664;2023-08-08T11:48:27;98716.19;;;29.24;84.69
61900;BME280;47853;55.890;37.664;2023-08-08T11:50:53;98711.25;;;30.27;76.48
61900;BME280;47853;55.890;37.664;2023-08-08T11:53:19;98712.13;;;30.85;71.33
61900;BME280;47853;55.890;37.664;2023-08-08T11:55:45;98709.38;;;30.36;73.87
61900;BME280;47853;55.890;37.664;2023-08-08T11:58:15;98710.91;;;29.96;77.42
61900;BME280;47853;55.890;37.664;2023-08-08T12:00:42;98702.91;;;30.72;72.41
61900;BME280;47853;55.890;37.664;2023-08-08T12:03:08;98701.31;;;30.89;71.15
61900;BME280;47853;55.890;37.664;2023-08-08T12:05:37;98707.78;;;30.03;78.01
61900;BME280;47853;55.890;37.664;2023-08-08T12:08:04;98701.09;;;29.95;77.00
61900;BME280;47853;55.890;37.664;2023-08-08T12:10:30;98713.69;;;29.51;81.21
61900;BME280;47853;55.890;37.664;2023-08-08T12:12:57;98703.34;;;28.32;90.64
61900;BME280;47853;55.890;37.664;2023-08-08T12:15:23;98698.31;;;29.04;85.36
61900;BME280;47853;55.890;37.664;2023-08-08T12:17:48;98701.31;;;29.76;82.79
61900;BME280;47853;55.890;37.664;2023-08-08T12:20:14;98693.94;;;29.17;86.88
61900;BME280;47853;55.890;37.664;2023-08-08T12:22:40;98698.25;;;30.73;75.32
61900;BME280;47853;55.890;37.664;2023-08-08T12:25:05;98703.38;;;29.48;83.50
61900;BME280;47853;55.890;37.664;2023-08-08T12:27:31;98700.03;;;29.37;83.99
61900;BME280;47853;55.890;37.664;2023-08-08T12:29:57;98702.03;;;28.86;86.68
61900;BME280;47853;55.890;37.664;2023-08-08T12:32:26;98706.88;;;30.17;78.82
61900;BME280;47853;55.890;37.664;2023-08-08T12:34:52;98700.44;;;29.90;79.89
61900;BME280;47853;55.890;37.664;2023-08-08T13:18:31;98672.22;;;30.52;75.26
61900;BME280;47853;55.890;37.664;2023-08-08T13:24:32;98646.28;;;29.78;75.41